Time;durP1;ratioP1;P1;durP2;ratioP2;P2;SDS_P1;SDS_P2;PMS_P1;PMS_P2;Temp;Humidity;BMP_temperature;BMP_pressure;BME280_temperature;BME280_humidity;BME280_pressure;Samples;Min_cycle;Max_cycle;Signal;HPM_P1;HPM_P2
2022/08/04 00:01:40;;;;;;;7.40;3.67;;;;;;;;;;5028780;28;20516;-77
2022/08/04 00:04:12;;;;;;;7.45;3.42;;;;;;;;;;5023525;28;20412;-75
2022/08/04 00:06:47;;;;;;;8.38;3.38;;;;;;;;;;5031560;28;20110;-76
2022/08/04 00:09:16;;;;;;;9.13;3.53;;;;;;;;;;5031020;28;20092;-77
2022/08/04 00:11:45;;;;;;;9.85;4.00;;;;;;;;;;5030762;28;20065;-78
2022/08/04 00:14:12;;;;;;;10.65;4.93;;;;;;;;;;5040853;28;20505;-78
2022/08/04 00:16:39;;;;;;;8.27;3.22;;;;;;;;;;5046765;28;20120;-77
2022/08/04 00:19:31;;;;;;;6.15;3.85;;;;;;;;;;5031530;28;20065;-78
2022/08/04 00:21:59;;;;;;;7.35;3.42;;;;;;;;;;5030482;28;20554;-77
2022/08/04 00:24:24;;;;;;;10.93;3.80;;;;;;;;;;5032519;28;20485;-77
2022/08/04 00:26:52;;;;;;;9.57;4.15;;;;;;;;;;5034913;28;20075;-76
2022/08/04 00:29:17;;;;;;;9.82;3.75;;;;;;;;;;5048483;28;20025;-75
2022/08/04 00:31:46;;;;;;;7.88;4.07;;;;;;;;;;5047577;28;20611;-74
2022/08/04 00:34:15;;;;;;;8.00;4.13;;;;;;;;;;5035014;28;20021;-75
2022/08/04 00:36:44;;;;;;;6.55;3.60;;;;;;;;;;5048164;28;20064;-77
2022/08/04 00:39:13;;;;;;;6.90;3.65;;;;;;;;;;5034697;28;20052;-78
2022/08/04 00:41:57;;;;;;;9.98;3.60;;;;;;;;;;5033610;28;20516;-76
2022/08/04 00:44:28;;;;;;;10.23;3.60;;;;;;;;;;5032948;28;20048;-76
2022/08/04 00:46:59;;;;;;;8.32;4.13;;;;;;;;;;5033939;28;20022;-77
2022/08/04 00:49:32;;;;;;;9.82;4.30;;;;;;;;;;5033276;28;20029;-77
2022/08/04 00:52:01;;;;;;;9.00;3.53;;;;;;;;;;5033165;28;20374;-75
2022/08/04 00:54:29;;;;;;;9.75;3.90;;;;;;;;;;5050852;28;20032;-75
2022/08/04 00:56:57;;;;;;;7.53;3.35;;;;;;;;;;5055219;28;20017;-75
2022/08/04 00:59:34;;;;;;;9.80;3.95;;;;;;;;;;5070181;28;20496;-75
2022/08/04 01:02:05;;;;;;;10.38;3.63;;;;;;;;;;5038204;28;20559;-78
2022/08/04 01:04:43;;;;;;;11.18;3.47;;;;;;;;;;5034359;28;20501;-76
2022/08/04 01:07:35;;;;;;;12.68;4.00;;;;;;;;;;5034736;28;20145;-75
2022/08/04 01:10:09;;;;;;;10.70;3.60;;;;;;;;;;5034060;28;20025;-77
2022/08/04 01:12:49;;;;;;;11.40;3.90;;;;;;;;;;5032476;28;20095;-78
2022/08/04 01:15:18;;;;;;;7.53;3.58;;;;;;;;;;5070262;28;20017;-76
2022/08/04 01:17:52;;;;;;;11.00;4.40;;;;;;;;;;5046925;28;20029;-75
2022/08/04 01:20:23;;;;;;;10.27;4.20;;;;;;;;;;5014809;28;20030;-75
2022/08/04 01:23:18;;;;;;;9.40;4.10;;;;;;;;;;5033808;28;20112;-76
2022/08/04 01:25:46;;;;;;;22.88;3.58;;;;;;;;;;5009512;28;20620;-77
2022/08/04 01:28:26;;;;;;;8.98;4.43;;;;;;;;;;5033744;28;20029;-77
2022/08/04 01:31:01;;;;;;;7.97;4.35;;;;;;;;;;5028823;28;20112;-75
2022/08/04 01:33:28;;;;;;;8.13;3.70;;;;;;;;;;5031242;28;20382;-75
2022/08/04 01:35:54;;;;;;;9.68;4.53;;;;;;;;;;5032864;28;20472;-77
2022/08/04 01:38:32;;;;;;;10.05;3.85;;;;;;;;;;5033750;28;20021;-77
2022/08/04 01:40:59;;;;;;;10.10;5.10;;;;;;;;;;5033779;28;20036;-78
2022/08/04 01:43:26;;;;;;;8.55;4.03;;;;;;;;;;5048333;28;20033;-77
2022/08/04 01:46:11;;;;;;;6.93;4.30;;;;;;;;;;5034136;28;20017;-78
2022/08/04 01:48:38;;;;;;;8.18;4.72;;;;;;;;;;5034177;28;20086;-76
2022/08/04 01:51:05;;;;;;;10.60;4.20;;;;;;;;;;5034086;28;20512;-77
2022/08/04 01:53:31;;;;;;;9.80;4.85;;;;;;;;;;5034104;28;20410;-78
2022/08/04 01:55:57;;;;;;;9.75;3.95;;;;;;;;;;5049161;28;20025;-75
2022/08/04 01:58:23;;;;;;;5.97;4.22;;;;;;;;;;5031645;28;20021;-76
2022/08/04 02:00:55;;;;;;;11.20;4.20;;;;;;;;;;5023132;28;20033;-78
2022/08/04 02:03:21;;;;;;;7.30;4.65;;;;;;;;;;5012555;28;20046;-78
2022/08/04 02:05:47;;;;;;;7.63;4.47;;;;;;;;;;5046626;28;20033;-75
2022/08/04 02:08:21;;;;;;;24.33;5.57;;;;;;;;;;5048072;28;20053;-77
2022/08/04 02:10:49;;;;;;;8.35;4.07;;;;;;;;;;5033880;28;20053;-75
2022/08/04 02:13:33;;;;;;;6.88;4.03;;;;;;;;;;5048612;28;20079;-77
2022/08/04 02:16:10;;;;;;;7.32;4.43;;;;;;;;;;5017594;28;20036;-76
2022/08/04 02:18:56;;;;;;;13.02;4.25;;;;;;;;;;5031720;28;20519;-74
2022/08/04 02:21:24;;;;;;;8.70;5.05;;;;;;;;;;5021848;28;20047;-74
2022/08/04 02:23:52;;;;;;;11.05;4.60;;;;;;;;;;5033598;28;20653;-74
2022/08/04 02:26:18;;;;;;;10.60;4.82;;;;;;;;;;5032009;28;20057;-75
2022/08/04 02:28:47;;;;;;;7.45;3.90;;;;;;;;;;5035788;28;20489;-79
2022/08/04 02:31:15;;;;;;;10.57;4.97;;;;;;;;;;5050899;28;20029;-76
2022/08/04 02:33:45;;;;;;;9.90;5.20;;;;;;;;;;5050460;28;20021;-79
2022/08/04 02:36:14;;;;;;;12.07;6.38;;;;;;;;;;5032083;28;20033;-77
2022/08/04 02:38:46;;;;;;;10.80;6.18;;;;;;;;;;5032855;28;20020;-77
2022/08/04 02:41:13;;;;;;;11.90;7.30;;;;;;;;;;5032964;28;20026;-76
2022/08/04 02:43:40;;;;;;;19.75;6.97;;;;;;;;;;5016324;28;20101;-77
2022/08/04 02:46:06;;;;;;;13.10;6.57;;;;;;;;;;5020552;28;20033;-76
2022/08/04 02:48:33;;;;;;;15.40;7.55;;;;;;;;;;5032867;28;20125;-77
2022/08/04 02:50:59;;;;;;;14.15;6.43;;;;;;;;;;5032673;28;20010;-74
2022/08/04 02:53:25;;;;;;;13.38;6.65;;;;;;;;;;5029780;28;20022;-77
2022/08/04 02:55:51;;;;;;;10.13;6.40;;;;;;;;;;5039908;28;20481;-76
2022/08/04 02:58:18;;;;;;;14.38;7.00;;;;;;;;;;5032176;28;20060;-79
2022/08/04 03:00:43;;;;;;;9.70;6.82;;;;;;;;;;5031590;28;20115;-74
2022/08/04 03:03:19;;;;;;;13.52;5.88;;;;;;;;;;5032105;28;20128;-74
2022/08/04 03:05:47;;;;;;;10.68;6.03;;;;;;;;;;5031608;28;20026;-76
2022/08/04 03:08:26;;;;;;;9.93;6.65;;;;;;;;;;5031786;28;20034;-79
2022/08/04 03:11:12;;;;;;;13.20;6.75;;;;;;;;;;5032615;28;20115;-75
2022/08/04 03:13:49;;;;;;;8.35;5.90;;;;;;;;;;5030945;28;20061;-75
2022/08/04 03:16:34;;;;;;;11.45;5.90;;;;;;;;;;5030892;28;20036;-77
2022/08/04 03:19:17;;;;;;;13.63;6.95;;;;;;;;;;5031625;28;20017;-77
2022/08/04 03:22:02;;;;;;;9.95;5.70;;;;;;;;;;5027468;28;20026;-77
2022/08/04 03:24:27;;;;;;;12.02;6.32;;;;;;;;;;5037860;28;20030;-78
2022/08/04 03:27:07;;;;;;;11.53;6.20;;;;;;;;;;5032649;28;20028;-77
2022/08/04 03:29:32;;;;;;;13.85;7.03;;;;;;;;;;5031643;28;20278;-77
2022/08/04 03:32:10;;;;;;;15.13;7.50;;;;;;;;;;5033723;28;20068;-77
2022/08/04 03:34:47;;;;;;;8.68;5.72;;;;;;;;;;5032333;28;20041;-77
2022/08/04 03:37:36;;;;;;;13.45;6.82;;;;;;;;;;5043759;28;20033;-78
2022/08/04 03:40:20;;;;;;;11.48;6.90;;;;;;;;;;5021765;28;20052;-76
2022/08/04 03:43:03;;;;;;;13.52;8.55;;;;;;;;;;5030959;28;20030;-77
2022/08/04 03:45:34;;;;;;;15.23;7.32;;;;;;;;;;5047968;28;20025;-75
2022/08/04 03:48:09;;;;;;;16.42;8.50;;;;;;;;;;5047222;28;20052;-75
2022/08/04 03:50:43;;;;;;;11.40;7.07;;;;;;;;;;5032403;28;20105;-77
2022/08/04 03:53:27;;;;;;;19.70;7.38;;;;;;;;;;5031420;28;20029;-78
2022/08/04 03:56:11;;;;;;;14.88;7.28;;;;;;;;;;5036839;28;20025;-75
2022/08/04 03:58:45;;;;;;;16.27;7.70;;;;;;;;;;5067524;28;20041;-75
2022/08/04 04:01:19;;;;;;;9.07;6.50;;;;;;;;;;5041323;28;20093;-78
2022/08/04 04:04:14;;;;;;;12.00;6.63;;;;;;;;;;5034855;28;20361;-76
2022/08/04 04:06:52;;;;;;;12.65;7.15;;;;;;;;;;5026558;28;20050;-78
2022/08/04 04:09:43;;;;;;;10.68;6.80;;;;;;;;;;5022043;28;20368;-75
2022/08/04 04:12:17;;;;;;;13.77;7.75;;;;;;;;;;5036016;28;20413;-78
2022/08/04 04:15:00;;;;;;;9.82;6.43;;;;;;;;;;5053599;28;20024;-75
2022/08/04 04:17:25;;;;;;;9.60;6.78;;;;;;;;;;5037729;28;20038;-77
2022/08/04 04:20:08;;;;;;;12.17;7.47;;;;;;;;;;5034467;28;20021;-78
2022/08/04 04:22:33;;;;;;;;;;;;;;;;;;5050988;28;20694;-75
2022/08/04 04:25:05;;;;;;;14.57;7.20;;;;;;;;;;5050741;28;19916;-78
2022/08/04 04:27:49;;;;;;;14.30;7.55;;;;;;;;;;5050416;28;20028;-78
2022/08/04 04:30:20;;;;;;;11.88;6.60;;;;;;;;;;5035777;28;20492;-78
2022/08/04 04:32:51;;;;;;;11.70;6.05;;;;;;;;;;5042498;28;20029;-75
2022/08/04 04:35:25;;;;;;;12.63;6.13;;;;;;;;;;5050359;28;20024;-78
2022/08/04 04:38:01;;;;;;;13.32;7.13;;;;;;;;;;5015489;28;20038;-75
2022/08/04 04:40:45;;;;;;;12.80;7.00;;;;;;;;;;5030828;28;20085;-78
2022/08/04 04:43:16;;;;;;;10.40;6.18;;;;;;;;;;5017920;28;20029;-75
2022/08/04 04:45:41;;;;;;;14.02;7.40;;;;;;;;;;5015443;28;20398;-78
2022/08/04 04:48:25;;;;;;;11.83;6.83;;;;;;;;;;5032566;28;20025;-78
2022/08/04 04:50:54;;;;;;;12.45;7.60;;;;;;;;;;5026599;28;20275;-76
2022/08/04 04:53:49;;;;;;;14.65;7.72;;;;;;;;;;5033461;28;20029;-76
2022/08/04 04:56:33;;;;;;;11.75;7.55;;;;;;;;;;5036591;28;20112;-76
2022/08/04 04:59:00;;;;;;;12.77;6.43;;;;;;;;;;5053131;28;20107;-75
2022/08/04 05:01:49;;;;;;;14.65;6.95;;;;;;;;;;5044766;28;20018;-79
2022/08/04 05:04:27;;;;;;;16.45;8.10;;;;;;;;;;5021357;28;20049;-76
2022/08/04 05:06:52;;;;;;;14.40;6.28;;;;;;;;;;5014688;28;20025;-74
2022/08/04 05:09:45;;;;;;;9.90;6.43;;;;;;;;;;5028313;28;20087;-77
2022/08/04 05:12:24;;;;;;;15.07;7.55;;;;;;;;;;5033566;28;20258;-74
2022/08/04 05:14:52;;;;;;;11.63;6.80;;;;;;;;;;5033695;28;20029;-75
2022/08/04 05:17:20;;;;;;;10.55;6.63;;;;;;;;;;5034181;28;20038;-75
2022/08/04 05:20:04;;;;;;;13.52;7.38;;;;;;;;;;5059076;28;20470;-77
2022/08/04 05:22:59;;;;;;;15.63;7.05;;;;;;;;;;5033848;28;20025;-78
2022/08/04 05:25:25;;;;;;;15.82;8.40;;;;;;;;;;5029866;28;20029;-77
2022/08/04 05:28:14;;;;;;;16.42;8.65;;;;;;;;;;5032488;28;20092;-77
2022/08/04 05:30:47;;;;;;;12.15;6.18;;;;;;;;;;5034096;28;20026;-76
2022/08/04 05:33:13;;;;;;;15.32;10.00;;;;;;;;;;5032974;28;20408;-77
2022/08/04 05:35:43;;;;;;;14.75;9.68;;;;;;;;;;5034931;28;20026;-77
2022/08/04 05:38:09;;;;;;;19.98;10.23;;;;;;;;;;5049190;28;20048;-77
2022/08/04 05:40:36;;;;;;;17.27;10.02;;;;;;;;;;5033890;28;20477;-74
2022/08/04 05:43:02;;;;;;;17.50;9.40;;;;;;;;;;5032697;28;20177;-75
2022/08/04 05:45:28;;;;;;;22.40;10.48;;;;;;;;;;5033432;28;20117;-74
2022/08/04 05:47:53;;;;;;;18.17;8.20;;;;;;;;;;5033023;28;20428;-77
2022/08/04 05:50:19;;;;;;;14.60;9.27;;;;;;;;;;5033918;28;20021;-75
2022/08/04 05:52:45;;;;;;;12.77;6.80;;;;;;;;;;5033357;28;20029;-77
2022/08/04 05:55:11;;;;;;;18.23;9.77;;;;;;;;;;5040104;28;20009;-76
2022/08/04 05:57:38;;;;;;;16.60;9.18;;;;;;;;;;5032624;28;20040;-76
2022/08/04 06:00:05;;;;;;;18.88;9.90;;;;;;;;;;5013576;28;20025;-75
2022/08/04 06:02:31;;;;;;;18.33;9.80;;;;;;;;;;5045237;28;20179;-76
2022/08/04 06:04:56;;;;;;;17.50;10.80;;;;;;;;;;5033981;28;20556;-78
2022/08/04 06:07:22;;;;;;;18.90;10.90;;;;;;;;;;5033846;28;20381;-76
2022/08/04 06:09:47;;;;;;;23.05;10.80;;;;;;;;;;5049684;28;20022;-76
2022/08/04 06:12:31;;;;;;;16.27;10.35;;;;;;;;;;5032421;28;20429;-78
2022/08/04 06:14:57;;;;;;;23.95;9.48;;;;;;;;;;5048889;28;20183;-78
2022/08/04 06:17:24;;;;;;;16.95;10.52;;;;;;;;;;5033412;28;20529;-75
2022/08/04 06:19:51;;;;;;;19.02;9.57;;;;;;;;;;5033259;28;20104;-77
2022/08/04 06:22:17;;;;;;;18.42;9.32;;;;;;;;;;5033319;28;20169;-78
2022/08/04 06:24:43;;;;;;;20.52;10.18;;;;;;;;;;5033797;28;20481;-77
2022/08/04 06:27:09;;;;;;;15.98;9.43;;;;;;;;;;5033536;28;20029;-75
2022/08/04 06:29:37;;;;;;;22.13;11.48;;;;;;;;;;5048449;28;20394;-78
2022/08/04 06:32:12;;;;;;;16.40;10.00;;;;;;;;;;5033483;28;20030;-77
2022/08/04 06:34:38;;;;;;;24.00;10.68;;;;;;;;;;5031738;28;20432;-77
2022/08/04 06:37:04;;;;;;;5.75;2.92;;;;;;;;;;5045516;28;20045;-75
2022/08/04 06:39:30;;;;;;;4.78;3.60;;;;;;;;;;5038440;28;20112;-77
2022/08/04 06:41:56;;;;;;;3.70;2.85;;;;;;;;;;5030653;28;20048;-78
2022/08/04 06:44:23;;;;;;;16.67;9.20;;;;;;;;;;5048813;28;20040;-78
2022/08/04 06:46:49;;;;;;;14.52;7.70;;;;;;;;;;5033546;28;20041;-78
2022/08/04 06:49:16;;;;;;;14.15;9.15;;;;;;;;;;5032700;28;20445;-76
2022/08/04 06:51:41;;;;;;;16.35;8.18;;;;;;;;;;5048182;28;20478;-76
2022/08/04 06:54:07;;;;;;;12.75;7.07;;;;;;;;;;5032749;28;20056;-75
2022/08/04 06:56:33;;;;;;;16.30;8.07;;;;;;;;;;5058719;28;20017;-78
2022/08/04 06:58:59;;;;;;;15.25;7.35;;;;;;;;;;5034407;28;20416;-78
2022/08/04 07:01:25;;;;;;;15.30;6.65;;;;;;;;;;5047949;28;20021;-74
2022/08/04 07:03:51;;;;;;;16.60;6.80;;;;;;;;;;5040968;28;20413;-76
2022/08/04 07:06:17;;;;;;;12.00;5.78;;;;;;;;;;5032690;28;20039;-76
2022/08/04 07:08:44;;;;;;;17.48;6.95;;;;;;;;;;5031678;28;20030;-77
2022/08/04 07:11:09;;;;;;;17.55;5.50;;;;;;;;;;5031834;28;20045;-77
2022/08/04 07:13:35;;;;;;;15.25;6.38;;;;;;;;;;5030822;28;20477;-77
2022/08/04 07:16:00;;;;;;;10.25;4.50;;;;;;;;;;5032491;28;20013;-76
2022/08/04 07:18:26;;;;;;;10.27;4.45;;;;;;;;;;5030595;28;20029;-77
2022/08/04 07:20:51;;;;;;;13.05;4.75;;;;;;;;;;5032812;28;20033;-77
2022/08/04 07:23:21;;;;;;;14.10;5.22;;;;;;;;;;5032115;28;20470;-76
2022/08/04 07:25:51;;;;;;;13.55;4.35;;;;;;;;;;5011446;28;20038;-76
2022/08/04 07:28:17;;;;;;;12.40;4.97;;;;;;;;;;5039653;28;20119;-76
2022/08/04 07:30:42;;;;;;;10.50;4.75;;;;;;;;;;5032078;28;20048;-76
2022/08/04 07:33:08;;;;;;;13.60;5.22;;;;;;;;;;5046844;28;20033;-77
2022/08/04 07:35:34;;;;;;;9.05;3.78;;;;;;;;;;5035336;28;20417;-76
2022/08/04 07:37:59;;;;;;;12.90;4.97;;;;;;;;;;5034895;28;20033;-77
2022/08/04 07:40:30;;;;;;;8.40;4.70;;;;;;;;;;5036501;28;20053;-77
2022/08/04 07:42:56;;;;;;;11.30;5.30;;;;;;;;;;5033531;28;20481;-77
2022/08/04 07:45:22;;;;;;;19.85;6.30;;;;;;;;;;5036695;28;20082;-78
2022/08/04 07:47:47;;;;;;;16.10;8.10;;;;;;;;;;5035667;28;20041;-77
2022/08/04 07:50:13;;;;;;;12.63;5.82;;;;;;;;;;5035513;28;20389;-77
2022/08/04 07:52:38;;;;;;;16.52;7.80;;;;;;;;;;5036397;28;20033;-76
2022/08/04 07:55:03;;;;;;;15.55;7.60;;;;;;;;;;5035922;28;20014;-76
2022/08/04 07:57:29;;;;;;;16.50;7.35;;;;;;;;;;5035681;28;20473;-76
2022/08/04 07:59:54;;;;;;;16.17;6.53;;;;;;;;;;5052382;28;20037;-76
2022/08/04 08:02:21;;;;;;;19.25;8.13;;;;;;;;;;5034044;28;20620;-76
2022/08/04 08:04:46;;;;;;;17.58;8.68;;;;;;;;;;5035907;28;20049;-76
2022/08/04 08:07:11;;;;;;;31.02;8.95;;;;;;;;;;5036302;28;20276;-77
2022/08/04 08:09:37;;;;;;;15.13;7.60;;;;;;;;;;5036310;28;20033;-76
2022/08/04 08:12:02;;;;;;;13.77;6.85;;;;;;;;;;5034143;28;20017;-78
2022/08/04 08:14:29;;;;;;;12.80;7.53;;;;;;;;;;5035974;28;20022;-76
2022/08/04 08:16:58;;;;;;;17.13;8.20;;;;;;;;;;5050946;28;20401;-77
2022/08/04 08:19:23;;;;;;;15.57;8.10;;;;;;;;;;5036006;28;20112;-75
2022/08/04 08:21:48;;;;;;;22.60;8.70;;;;;;;;;;5051120;28;20121;-75
2022/08/04 08:24:14;;;;;;;14.98;8.20;;;;;;;;;;5035587;28;20033;-78
2022/08/04 08:26:40;;;;;;;17.27;8.40;;;;;;;;;;5035727;28;20038;-78
2022/08/04 08:29:05;;;;;;;10.68;7.93;;;;;;;;;;5035429;28;20080;-77
2022/08/04 08:31:31;;;;;;;20.73;8.45;;;;;;;;;;5034948;28;20029;-76
2022/08/04 08:33:58;;;;;;;13.38;6.97;;;;;;;;;;5047369;28;20018;-77
2022/08/04 08:36:23;;;;;;;16.17;7.10;;;;;;;;;;5023039;28;20028;-76
2022/08/04 08:38:51;;;;;;;17.97;7.50;;;;;;;;;;5033718;28;20026;-77
2022/08/04 08:41:16;;;;;;;18.60;6.75;;;;;;;;;;5035518;28;20274;-77
2022/08/04 08:44:01;;;;;;;15.80;7.03;;;;;;;;;;5048943;28;20017;-75
2022/08/04 08:46:42;;;;;;;13.82;7.20;;;;;;;;;;5013090;28;20336;-77
2022/08/04 08:49:25;;;;;;;12.38;5.25;;;;;;;;;;5035207;28;20428;-77
2022/08/04 08:51:55;;;;;;;9.40;5.20;;;;;;;;;;5033616;28;20045;-77
2022/08/04 08:54:35;;;;;;;11.18;6.38;;;;;;;;;;5035174;28;20037;-78
2022/08/04 08:57:09;;;;;;;13.85;5.63;;;;;;;;;;5034446;28;20026;-77
2022/08/04 08:59:43;;;;;;;15.02;5.55;;;;;;;;;;5035540;28;20029;-77
2022/08/04 09:02:15;;;;;;;12.85;6.60;;;;;;;;;;5035132;28;20469;-77
2022/08/04 09:04:46;;;;;;;14.02;7.43;;;;;;;;;;5050316;28;20438;-77
2022/08/04 09:07:18;;;;;;;10.93;5.75;;;;;;;;;;5050697;28;20021;-79
2022/08/04 09:09:49;;;;;;;16.08;5.82;;;;;;;;;;5050118;28;20075;-78
2022/08/04 09:12:14;;;;;;;10.88;5.10;;;;;;;;;;5035118;28;20477;-78
2022/08/04 09:14:44;;;;;;;10.17;4.43;;;;;;;;;;5034754;28;20025;-77
2022/08/04 09:17:12;;;;;;;5.90;4.65;;;;;;;;;;5037093;28;20310;-77
2022/08/04 09:19:48;;;;;;;10.77;4.35;;;;;;;;;;5034564;28;20044;-77
2022/08/04 09:22:20;;;;;;;11.60;3.97;;;;;;;;;;5034992;28;20029;-76
2022/08/04 09:24:48;;;;;;;7.13;3.33;;;;;;;;;;5050457;28;20044;-78
2022/08/04 09:27:23;;;;;;;5.78;3.42;;;;;;;;;;5033297;28;20034;-77
2022/08/04 09:29:56;;;;;;;5.90;3.38;;;;;;;;;;5049531;28;20029;-76
2022/08/04 09:32:47;;;;;;;9.48;3.30;;;;;;;;;;5033975;28;20032;-75
2022/08/04 09:35:24;;;;;;;9.00;3.83;;;;;;;;;;5042358;28;20036;-76
2022/08/04 09:38:08;;;;;;;8.70;3.67;;;;;;;;;;5033921;28;20061;-76
2022/08/04 09:40:42;;;;;;;7.78;4.15;;;;;;;;;;5033492;28;20672;-76
2022/08/04 09:43:27;;;;;;;8.02;3.05;;;;;;;;;;5047909;28;20036;-77
2022/08/04 09:45:55;;;;;;;7.90;2.83;;;;;;;;;;5049108;28;20519;-77
2022/08/04 09:48:27;;;;;;;5.65;2.90;;;;;;;;;;5033628;28;20033;-76
2022/08/04 09:50:56;;;;;;;7.03;3.67;;;;;;;;;;5037178;28;20048;-76
2022/08/04 09:53:28;;;;;;;10.00;3.95;;;;;;;;;;5034057;28;20026;-77
2022/08/04 09:55:59;;;;;;;8.10;3.00;;;;;;;;;;5043083;28;20041;-79
2022/08/04 09:58:43;;;;;;;7.27;3.93;;;;;;;;;;5032791;28;20052;-78
2022/08/04 10:01:10;;;;;;;8.90;4.28;;;;;;;;;;5034313;28;20509;-78
2022/08/04 10:03:37;;;;;;;9.57;3.95;;;;;;;;;;5048952;28;20041;-76
2022/08/04 10:06:15;;;;;;;9.65;3.05;;;;;;;;;;5032089;28;20504;-79
2022/08/04 10:09:00;;;;;;;6.65;3.55;;;;;;;;;;5034312;28;20397;-78
2022/08/04 10:11:34;;;;;;;6.07;3.00;;;;;;;;;;5012571;28;20025;-77
2022/08/04 10:14:19;;;;;;;11.25;3.15;;;;;;;;;;5045421;28;20075;-79
2022/08/04 10:17:02;;;;;;;8.40;2.90;;;;;;;;;;5033316;28;20444;-78
2022/08/04 10:19:30;;;;;;;8.75;3.22;;;;;;;;;;5033011;28;20029;-79
2022/08/04 10:22:04;;;;;;;10.63;3.13;;;;;;;;;;5033850;28;20025;-76
2022/08/04 10:24:42;;;;;;;6.38;3.67;;;;;;;;;;5033797;28;20009;-76
2022/08/04 10:27:15;;;;;;;6.13;2.75;;;;;;;;;;5033110;28;20629;-78
2022/08/04 10:29:44;;;;;;;9.52;3.85;;;;;;;;;;5033093;28;20509;-76
2022/08/04 10:32:22;;;;;;;8.25;3.42;;;;;;;;;;5032176;28;20076;-77
2022/08/04 10:34:56;;;;;;;7.65;2.97;;;;;;;;;;5049079;28;20353;-78
2022/08/04 10:37:30;;;;;;;11.20;3.40;;;;;;;;;;5032473;28;20029;-77
2022/08/04 10:43:02;;;;;;;8.07;3.08;;;;;;;;;;5031303;28;20064;-77
2022/08/04 10:45:40;;;;;;;4.25;3.08;;;;;;;;;;5031052;28;20085;-75
2022/08/04 10:48:18;;;;;;;4.63;2.13;;;;;;;;;;5032846;28;20032;-77
2022/08/04 10:50:49;;;;;;;4.13;2.85;;;;;;;;;;5039553;28;20474;-76
2022/08/04 10:53:18;;;;;;;3.83;2.63;;;;;;;;;;5032304;28;20029;-75
2022/08/04 10:55:56;;;;;;;4.20;2.08;;;;;;;;;;5032831;28;20022;-78
2022/08/04 10:58:27;;;;;;;4.72;2.25;;;;;;;;;;5030777;28;20037;-77
2022/08/04 11:00:55;;;;;;;2.83;2.22;;;;;;;;;;5033323;28;20025;-74
2022/08/04 11:03:30;;;;;;;5.57;2.30;;;;;;;;;;5030796;28;20091;-77
2022/08/04 11:05:59;;;;;;;8.40;2.40;;;;;;;;;;5018959;28;20022;-75
2022/08/04 11:08:24;;;;;;;3.28;1.52;;;;;;;;;;5032011;28;20037;-76
2022/08/04 11:10:59;;;;;;;3.77;1.90;;;;;;;;;;5033082;28;20108;-78
2022/08/04 11:13:28;;;;;;;4.55;1.80;;;;;;;;;;5030459;28;20800;-78
2022/08/04 11:15:55;;;;;;;4.40;2.60;;;;;;;;;;5023425;28;20112;-77
2022/08/04 11:18:40;;;;;;;4.72;2.00;;;;;;;;;;5031374;28;20025;-76
2022/08/04 11:21:06;;;;;;;4.60;2.25;;;;;;;;;;5024143;28;20025;-77
2022/08/04 11:23:33;;;;;;;5.05;2.40;;;;;;;;;;5032194;28;20616;-78
2022/08/04 11:26:06;;;;;;;6.32;2.47;;;;;;;;;;5031575;28;20029;-77
2022/08/04 11:28:57;;;;;;;6.03;2.72;;;;;;;;;;5030406;28;20030;-78
2022/08/04 11:31:24;;;;;;;5.88;2.53;;;;;;;;;;5031814;28;20366;-78
2022/08/04 11:33:59;;;;;;;8.05;2.63;;;;;;;;;;5031605;28;20040;-77
2022/08/04 11:36:30;;;;;;;4.03;2.40;;;;;;;;;;5032183;28;20377;-78
2022/08/04 11:38:59;;;;;;;4.57;2.28;;;;;;;;;;5032650;28;20158;-77
2022/08/04 11:41:37;;;;;;;5.10;2.38;;;;;;;;;;5027758;28;20045;-76
2022/08/04 11:44:03;;;;;;;3.15;2.00;;;;;;;;;;5031492;28;20032;-75
2022/08/04 11:46:36;;;;;;;5.25;2.05;;;;;;;;;;5032593;28;20021;-76
2022/08/04 11:49:02;;;;;;;;;;;;;;;;;;5033091;28;20026;-77
2022/08/04 11:51:27;;;;;;;3.38;1.80;;;;;;;;;;5047693;28;19909;-78
2022/08/04 11:53:52;;;;;;;5.35;2.00;;;;;;;;;;5032629;28;20029;-78
2022/08/04 11:56:18;;;;;;;2.13;1.75;;;;;;;;;;5048940;28;20473;-76
2022/08/04 11:58:43;;;;;;;3.63;1.85;;;;;;;;;;5034267;28;20044;-76
2022/08/04 12:01:35;;;;;;;6.05;1.80;;;;;;;;;;5032739;28;20052;-76
2022/08/04 12:04:06;;;;;;;2.93;1.60;;;;;;;;;;5011247;28;20054;-77
2022/08/04 12:06:40;;;;;;;3.03;2.13;;;;;;;;;;5029502;28;20017;-78
2022/08/04 12:09:32;;;;;;;5.38;2.03;;;;;;;;;;5032726;28;20037;-77
2022/08/04 12:12:19;;;;;;;3.33;1.80;;;;;;;;;;5022707;28;20493;-78
2022/08/04 12:15:03;;;;;;;3.47;1.73;;;;;;;;;;5032034;28;20018;-76
2022/08/04 12:17:39;;;;;;;3.20;2.33;;;;;;;;;;5029953;28;20477;-75
2022/08/04 12:20:06;;;;;;;5.30;2.17;;;;;;;;;;5032450;28;20525;-77
2022/08/04 12:22:44;;;;;;;4.90;2.60;;;;;;;;;;5018540;28;20025;-75
2022/08/04 12:25:13;;;;;;;6.22;2.47;;;;;;;;;;5031294;28;20030;-77
2022/08/04 12:27:46;;;;;;;6.57;2.25;;;;;;;;;;5030977;28;20556;-75
2022/08/04 12:30:12;;;;;;;3.97;2.15;;;;;;;;;;5036169;28;20045;-77
2022/08/04 12:32:40;;;;;;;7.05;2.65;;;;;;;;;;5035413;28;20069;-75
2022/08/04 12:35:09;;;;;;;4.07;2.25;;;;;;;;;;5050964;28;20028;-77
2022/08/04 12:37:37;;;;;;;4.80;2.47;;;;;;;;;;5036106;28;20470;-77
2022/08/04 12:40:07;;;;;;;3.85;2.50;;;;;;;;;;5035901;28;20022;-77
2022/08/04 12:42:32;;;;;;;5.45;3.38;;;;;;;;;;5033070;28;20036;-75
2022/08/04 12:44:58;;;;;;;9.67;3.50;;;;;;;;;;5034833;28;20381;-75
2022/08/04 12:47:24;;;;;;;7.18;2.60;;;;;;;;;;5045790;28;20307;-75
2022/08/04 12:49:50;;;;;;;5.85;3.40;;;;;;;;;;5019611;28;20084;-75
2022/08/04 12:52:17;;;;;;;6.10;3.00;;;;;;;;;;5035029;28;20040;-75
2022/08/04 12:54:44;;;;;;;3.28;2.00;;;;;;;;;;5054313;28;20469;-75
2022/08/04 12:57:10;;;;;;;3.38;2.40;;;;;;;;;;5049002;28;20337;-76
2022/08/04 12:59:42;;;;;;;4.75;2.47;;;;;;;;;;5035348;28;20389;-75
2022/08/04 13:02:16;;;;;;;3.22;2.40;;;;;;;;;;5034812;28;20037;-75
2022/08/04 13:04:44;;;;;;;6.05;2.75;;;;;;;;;;5035270;28;20075;-77
2022/08/04 13:07:14;;;;;;;4.47;2.42;;;;;;;;;;5035083;28;20112;-75
2022/08/04 13:09:40;;;;;;;6.22;2.33;;;;;;;;;;5035157;28;20017;-75
2022/08/04 13:12:25;;;;;;;4.93;2.42;;;;;;;;;;5034026;28;20079;-75
2022/08/04 13:14:57;;;;;;;4.93;2.55;;;;;;;;;;5047768;28;20433;-76
2022/08/04 13:17:23;;;;;;;3.70;2.78;;;;;;;;;;5026245;28;20029;-75
2022/08/04 13:19:49;;;;;;;6.30;2.65;;;;;;;;;;5034788;28;20045;-77
2022/08/04 13:22:24;;;;;;;7.05;3.28;;;;;;;;;;5034510;28;20386;-76
2022/08/04 13:24:50;;;;;;;4.70;2.60;;;;;;;;;;5034436;28;20462;-76
2022/08/04 13:27:19;;;;;;;9.10;3.50;;;;;;;;;;5035074;28;20121;-77
2022/08/04 13:29:45;;;;;;;3.85;2.35;;;;;;;;;;5033349;28;20079;-77
2022/08/04 13:32:14;;;;;;;8.65;3.97;;;;;;;;;;5046424;28;20092;-77
2022/08/04 13:34:41;;;;;;;5.07;3.05;;;;;;;;;;5054870;28;20432;-78
2022/08/04 13:37:07;;;;;;;4.13;2.40;;;;;;;;;;5040595;28;20068;-77
2022/08/04 13:39:33;;;;;;;5.35;2.22;;;;;;;;;;5034250;28;20117;-76
2022/08/04 13:42:00;;;;;;;7.90;2.72;;;;;;;;;;5033482;28;20175;-75
2022/08/04 13:44:27;;;;;;;5.30;2.45;;;;;;;;;;5034661;28;20037;-77
2022/08/04 13:47:07;;;;;;;6.30;2.20;;;;;;;;;;5045999;28;20018;-78
2022/08/04 13:49:32;;;;;;;5.28;2.28;;;;;;;;;;5031227;28;20083;-75
2022/08/04 13:52:02;;;;;;;4.43;2.20;;;;;;;;;;5032764;28;20033;-76
2022/08/04 13:54:39;;;;;;;6.25;2.83;;;;;;;;;;5029330;28;20010;-75
2022/08/04 13:57:07;;;;;;;4.47;2.53;;;;;;;;;;5031126;28;20425;-76
2022/08/04 13:59:35;;;;;;;3.85;1.90;;;;;;;;;;5046488;28;20402;-76
2022/08/04 14:02:08;;;;;;;11.25;2.55;;;;;;;;;;5025757;28;20095;-75
2022/08/04 14:04:36;;;;;;;4.75;2.40;;;;;;;;;;5034203;28;20053;-76
2022/08/04 14:07:05;;;;;;;5.75;2.50;;;;;;;;;;5038339;28;20397;-78
2022/08/04 14:09:31;;;;;;;12.30;2.90;;;;;;;;;;5034266;28;20017;-76
2022/08/04 14:12:03;;;;;;;3.05;2.20;;;;;;;;;;5032931;28;20022;-75
2022/08/04 14:14:30;;;;;;;6.38;2.38;;;;;;;;;;5034182;28;20072;-76
2022/08/04 14:16:57;;;;;;;6.90;2.30;;;;;;;;;;5034046;28;20037;-78
2022/08/04 14:19:22;;;;;;;6.13;2.67;;;;;;;;;;5033663;28;20347;-77
2022/08/04 14:21:48;;;;;;;6.82;2.45;;;;;;;;;;5035635;28;20116;-76
2022/08/04 14:24:21;;;;;;;5.13;2.10;;;;;;;;;;5053140;28;20040;-76
2022/08/04 14:26:47;;;;;;;4.60;1.98;;;;;;;;;;5048690;28;20017;-77
2022/08/04 14:29:13;;;;;;;5.53;2.13;;;;;;;;;;5034119;28;20024;-77
2022/08/04 14:31:39;;;;;;;5.13;2.60;;;;;;;;;;5033933;28;20370;-77
2022/08/04 14:34:08;;;;;;;3.95;2.45;;;;;;;;;;5033473;28;20480;-77
2022/08/04 14:36:40;;;;;;;7.50;3.90;;;;;;;;;;5030699;28;20478;-75
2022/08/04 14:39:06;;;;;;;2.80;1.83;;;;;;;;;;5034847;28;20056;-77
2022/08/04 14:41:43;;;;;;;2.65;2.05;;;;;;;;;;5033021;28;20061;-77
2022/08/04 14:44:08;;;;;;;3.83;2.15;;;;;;;;;;5028703;28;20482;-76
2022/08/04 14:46:49;;;;;;;4.80;2.40;;;;;;;;;;5029351;28;20087;-76
2022/08/04 14:49:14;;;;;;;6.55;2.30;;;;;;;;;;5047590;28;20623;-76
2022/08/04 14:51:43;;;;;;;3.10;2.13;;;;;;;;;;5033358;28;20026;-78
2022/08/04 14:54:09;;;;;;;3.28;2.40;;;;;;;;;;5033777;28;20263;-76
2022/08/04 14:56:35;;;;;;;4.43;2.30;;;;;;;;;;5042762;28;20033;-76
2022/08/04 14:59:02;;;;;;;6.07;2.45;;;;;;;;;;5033589;28;20018;-76
2022/08/04 15:01:28;;;;;;;4.20;1.90;;;;;;;;;;5032885;28;20037;-76
2022/08/04 15:03:53;;;;;;;5.05;2.67;;;;;;;;;;5033445;28;20057;-75